Time;durP1;ratioP1;P1;durP2;ratioP2;P2;SDS_P1;SDS_P2;PMS_P1;PMS_P2;Temp;Humidity;BMP_temperature;BMP_pressure;BME280_temperature;BME280_humidity;BME280_pressure;Samples;Min_cycle;Max_cycle;Signal;HPM_P1;HPM_P2
2023/01/26 00:00:03;;;;;;;6.97;5.33;;;2.10;99.90;;;1.68;67.45;95413.72;5091410;28;20501;-55
2023/01/26 00:02:30;;;;;;;10.27;5.70;;;2.10;99.90;;;1.69;66.23;95414.56;5095226;28;20450;-59
2023/01/26 00:04:58;;;;;;;6.63;4.90;;;2.10;99.90;;;1.69;66.70;95424.94;5094758;27;20553;-58
2023/01/26 00:07:25;;;;;;;7.20;5.30;;;2.10;99.90;;;1.66;66.76;95414.69;5091520;28;21005;-56
2023/01/26 00:09:52;;;;;;;7.03;4.77;;;2.00;99.90;;;1.60;66.20;95416.69;5087247;28;20501;-58
2023/01/26 00:12:19;;;;;;;5.30;4.20;;;2.00;99.90;;;1.52;66.53;95415.34;5088949;28;20518;-57
2023/01/26 00:14:49;;;;;;;6.63;4.73;;;1.90;99.90;;;1.45;67.13;95426.94;5087786;28;20474;-56
2023/01/26 00:17:25;;;;;;;10.77;6.00;;;1.90;99.90;;;1.39;66.59;95428.03;5090047;28;20461;-57
2023/01/26 00:19:57;;;;;;;6.10;4.33;;;1.80;99.90;;;1.41;66.71;95431.38;5090995;28;20545;-57
2023/01/26 00:22:24;;;;;;;5.57;4.13;;;1.80;99.90;;;1.41;67.60;95429.66;5092747;28;20450;-56
2023/01/26 00:24:52;;;;;;;9.30;5.60;;;1.80;99.90;;;1.42;68.10;95430.50;5089462;28;20507;-56
2023/01/26 00:27:19;;;;;;;8.63;6.17;;;1.80;99.90;;;1.42;66.44;95428.72;5088262;28;20465;-58
2023/01/26 00:29:46;;;;;;;5.43;4.57;;;1.80;99.90;;;1.41;66.69;95416.69;5093327;28;20500;-57
2023/01/26 00:32:13;;;;;;;5.43;4.77;;;1.80;99.90;;;1.38;67.24;95403.88;5092009;28;20502;-58
2023/01/26 00:34:42;;;;;;;11.63;5.07;;;1.80;99.90;;;1.41;67.83;95405.47;5088148;28;20470;-57
2023/01/26 00:37:09;;;;;;;8.57;5.20;;;1.80;99.90;;;1.40;67.43;95386.50;5087504;28;20473;-58
2023/01/26 00:39:37;;;;;;;5.97;4.33;;;1.80;99.90;;;1.39;66.64;95392.59;5094172;28;21059;-57
2023/01/26 00:42:08;;;;;;;6.43;4.97;;;1.80;99.90;;;1.38;67.03;95390.94;5087957;28;20976;-57
2023/01/26 00:44:39;;;;;;;7.80;5.90;;;1.80;99.90;;;1.36;67.65;95397.91;5089523;28;20523;-58
2023/01/26 00:47:06;;;;;;;9.27;5.87;;;1.80;99.90;;;1.39;67.26;95399.53;5089666;28;20481;-55
2023/01/26 00:49:34;;;;;;;6.17;4.57;;;1.80;99.90;;;1.36;66.51;95384.94;5090996;28;20481;-58
2023/01/26 00:52:02;;;;;;;10.63;4.60;;;1.80;99.90;;;1.35;66.25;95385.03;5089438;28;20473;-58
2023/01/26 00:54:29;;;;;;;8.43;5.43;;;1.80;99.90;;;1.33;66.72;95392.88;5089455;28;20482;-58
2023/01/26 00:56:57;;;;;;;7.20;4.80;;;1.80;99.90;;;1.30;67.67;95393.03;5089678;28;20457;-58
2023/01/26 00:59:24;;;;;;;9.90;4.97;;;1.70;99.90;;;1.28;67.23;95383.66;5086603;28;20486;-56
2023/01/26 01:01:52;;;;;;;5.90;5.30;;;1.70;99.90;;;1.27;66.85;95382.81;5096193;28;20994;-56
2023/01/26 01:04:19;;;;;;;7.60;5.77;;;1.70;99.90;;;1.29;67.39;95381.00;5093004;28;20587;-59
2023/01/26 01:06:46;;;;;;;5.03;4.47;;;1.70;99.90;;;1.31;66.45;95373.97;5089469;28;20493;-57
2023/01/26 01:09:15;;;;;;;6.37;5.20;;;1.70;99.90;;;1.28;66.23;95368.09;5085263;28;20474;-56
2023/01/26 01:11:44;;;;;;;5.37;4.83;;;1.70;99.90;;;1.23;67.31;95366.56;5083416;28;20485;-56
2023/01/26 01:14:12;;;;;;;8.10;5.50;;;1.70;99.90;;;1.23;66.21;95370.91;5090038;28;20477;-57
2023/01/26 01:16:39;;;;;;;6.40;5.07;;;1.70;99.90;;;1.21;66.87;95367.56;5085963;28;21356;-59
2023/01/26 01:19:07;;;;;;;11.43;5.97;;;1.60;99.90;;;1.23;66.63;95371.72;5091745;28;20514;-55
2023/01/26 01:21:35;;;;;;;6.57;5.20;;;1.60;99.90;;;1.25;66.08;95371.66;5093898;28;20475;-57
2023/01/26 01:24:02;;;;;;;5.10;4.57;;;1.70;99.90;;;1.26;66.76;95365.59;5093911;28;21005;-57
2023/01/26 01:26:31;;;;;;;9.00;5.70;;;1.60;99.90;;;1.24;66.18;95365.66;5089243;28;20568;-57
2023/01/26 01:28:58;;;;;;;6.03;4.73;;;1.60;99.90;;;1.27;66.04;95366.41;5087605;28;20469;-56
2023/01/26 01:31:28;;;;;;;5.70;4.37;;;1.60;99.90;;;1.29;66.05;95356.84;5088058;28;21402;-57
2023/01/26 01:33:55;;;;;;;5.07;4.33;;;1.70;99.90;;;1.33;66.31;95353.16;5087675;28;20863;-58
2023/01/26 01:36:22;;;;;;;7.33;4.47;;;1.70;99.90;;;1.32;66.53;95348.91;5088962;28;20514;-56
2023/01/26 01:38:50;;;;;;;6.50;4.63;;;1.70;99.90;;;1.31;66.10;95357.59;5087548;28;20561;-53
2023/01/26 01:41:19;;;;;;;5.07;4.57;;;1.70;99.90;;;1.28;65.84;95353.38;5094211;28;20484;-55
2023/01/26 01:43:48;;;;;;;6.30;4.97;;;1.70;99.90;;;1.26;65.66;95352.63;5091369;28;20476;-57
2023/01/26 01:46:20;;;;;;;5.00;4.53;;;1.70;99.90;;;1.24;65.41;95351.88;5096097;28;20482;-56
2023/01/26 01:48:52;;;;;;;7.33;4.73;;;1.70;99.90;;;1.23;65.11;95348.41;5089698;27;20476;-58
2023/01/26 01:51:23;;;;;;;5.90;5.00;;;1.60;99.90;;;1.21;65.71;95355.44;5088679;28;20506;-58
2023/01/26 01:53:51;;;;;;;5.63;4.23;;;1.60;99.90;;;1.24;65.61;95354.47;5092293;28;20541;-56
2023/01/26 01:56:21;;;;;;;6.90;4.40;;;1.60;99.90;;;1.25;65.59;95345.75;5089393;28;20454;-56
2023/01/26 01:58:52;;;;;;;6.10;5.50;;;1.60;99.90;;;1.27;65.33;95350.88;5090594;28;20478;-56
2023/01/26 02:01:19;;;;;;;5.90;3.90;;;1.70;99.90;;;1.24;65.64;95337.16;5095229;28;20553;-56
2023/01/26 02:03:47;;;;;;;6.67;4.70;;;1.60;99.90;;;1.21;65.07;95346.81;5096105;28;20997;-56
2023/01/26 02:06:16;;;;;;;5.77;4.30;;;1.60;99.90;;;1.17;65.61;95340.94;5095266;28;20524;-56
2023/01/26 02:08:45;;;;;;;4.20;3.90;;;1.60;99.90;;;1.15;65.36;95340.16;5089822;28;20469;-56
2023/01/26 02:11:14;;;;;;;5.07;4.00;;;1.60;99.90;;;1.12;66.04;95337.72;5094002;28;20985;-56
2023/01/26 02:13:42;;;;;;;5.20;4.30;;;1.60;99.90;;;1.12;65.39;95326.53;5096176;28;20475;-56
2023/01/26 02:16:10;;;;;;;4.20;3.80;;;1.50;99.90;;;1.12;65.92;95322.19;5096075;28;20459;-55
2023/01/26 02:18:38;;;;;;;6.10;3.93;;;1.60;99.90;;;1.11;65.23;95310.13;5092372;28;20473;-54
2023/01/26 02:21:06;;;;;;;4.33;3.80;;;1.50;99.90;;;1.11;65.93;95306.72;5091030;28;20629;-56
2023/01/26 02:23:47;;;;;;;6.50;4.40;;;1.50;99.90;;;1.12;64.79;95311.00;5091213;28;20473;-55
2023/01/26 02:26:16;;;;;;;5.50;4.67;;;1.50;99.90;;;1.07;65.30;95301.66;5092036;28;20557;-57
2023/01/26 02:28:44;;;;;;;5.93;4.37;;;1.50;99.90;;;1.08;65.81;95299.91;5095576;28;20586;-57
2023/01/26 02:31:11;;;;;;;5.00;4.27;;;1.50;99.90;;;1.09;65.13;95272.28;5093684;28;20457;-58
2023/01/26 02:33:38;;;;;;;5.47;4.77;;;1.50;99.90;;;1.07;65.90;95293.06;5096066;28;20485;-56
2023/01/26 02:36:07;;;;;;;6.60;4.60;;;1.50;99.90;;;1.06;65.83;95284.44;5087314;28;20474;-54
2023/01/26 02:38:40;;;;;;;4.50;4.10;;;1.50;99.90;;;1.07;66.11;95298.25;5087447;28;20466;-58
2023/01/26 02:41:08;;;;;;;4.20;3.77;;;1.50;99.90;;;1.05;65.37;95287.09;5091365;28;20478;-57
2023/01/26 02:43:36;;;;;;;6.63;4.47;;;1.50;99.90;;;1.09;64.78;95290.41;5091206;28;20484;-56
2023/01/26 02:46:03;;;;;;;3.83;3.53;;;1.50;99.90;;;1.06;64.96;95281.84;5089571;28;20548;-57
2023/01/26 02:51:15;;;;;;;6.33;5.27;;;1.50;99.90;;;1.01;65.82;95273.47;5089549;28;20731;-57
2023/01/26 02:53:43;;;;;;;6.30;4.90;;;1.40;99.90;;;1.00;65.20;95266.59;5095015;28;20473;-57
2023/01/26 02:56:09;;;;;;;7.03;4.00;;;1.40;99.90;;;1.01;65.95;95272.63;5091980;28;20458;-55
2023/01/26 02:58:37;;;;;;;4.37;3.77;;;1.40;99.90;;;0.99;65.40;95262.34;5088776;28;20465;-59
2023/01/26 03:01:05;;;;;;;4.50;4.20;;;1.40;99.90;;;0.96;66.15;95274.59;5090257;28;20986;-58
2023/01/26 03:03:41;;;;;;;4.50;4.10;;;1.40;99.90;;;0.95;65.40;95263.38;5089629;28;20456;-56
2023/01/26 03:06:10;;;;;;;8.03;5.33;;;1.40;99.90;;;0.89;66.33;95253.31;5091646;28;20468;-59
2023/01/26 03:08:37;;;;;;;6.07;3.77;;;1.30;99.90;;;0.88;66.33;95251.63;5092316;27;20509;-56
2023/01/26 03:11:05;;;;;;;8.17;4.70;;;1.30;99.90;;;0.84;65.80;95244.94;5093759;28;20457;-58
2023/01/26 03:13:32;;;;;;;9.57;4.83;;;1.30;99.90;;;0.80;65.94;95244.22;5093108;27;20485;-57
2023/01/26 03:16:05;;;;;;;8.30;4.40;;;1.20;99.90;;;0.75;65.79;95250.53;5088261;28;20451;-58
2023/01/26 03:29:47;;;;;;;8.30;4.17;;;1.20;99.90;;;0.69;66.66;95229.19;5094005;28;20461;-55
2023/01/26 03:32:16;;;;;;;2.80;1.80;;;1.10;99.90;;;0.67;65.98;95240.53;5090681;28;20592;-58
2023/01/26 03:34:43;;;;;;;4.40;4.00;;;1.10;99.90;;;0.62;66.06;95230.41;5095110;28;20997;-58
2023/01/26 03:37:11;;;;;;;7.60;4.60;;;1.10;99.90;;;0.61;65.89;95233.06;5089040;28;20446;-58
2023/01/26 03:56:23;;;;;;;5.67;3.30;;;0.90;99.90;;;0.39;66.53;95217.66;5087449;28;20533;-56
2023/01/26 03:58:52;;;;;;;4.80;3.77;;;0.90;99.90;;;0.39;66.73;95212.47;5091963;28;20469;-58
2023/01/26 04:01:26;;;;;;;4.47;4.00;;;0.90;99.90;;;0.41;66.80;95206.34;5087937;28;20530;-55
2023/01/26 04:09:26;;;;;;;4.70;4.13;;;0.90;99.90;;;0.51;67.30;95204.16;5088007;27;20858;-56
2023/01/26 04:11:54;;;;;;;4.40;3.70;;;0.90;99.90;;;0.50;66.55;95202.50;5095109;28;20473;-58
2023/01/26 04:22:42;;;;;;;4.70;4.30;;;0.90;99.90;;;0.47;66.63;95171.59;5089053;28;20568;-58
2023/01/26 04:25:09;;;;;;;3.80;3.33;;;0.90;99.90;;;0.46;67.02;95162.97;5088127;28;20468;-56
2023/01/26 04:27:37;;;;;;;10.73;3.50;;;0.90;99.90;;;0.47;66.96;95158.66;5089772;28;20493;-58
2023/01/26 04:30:05;;;;;;;4.67;4.10;;;0.90;99.90;;;0.48;67.43;95156.00;5098342;28;20456;-56
2023/01/26 04:32:32;;;;;;;4.83;4.27;;;0.90;99.90;;;0.49;67.00;95162.00;5088838;28;20482;-56
2023/01/26 04:35:01;;;;;;;5.17;3.73;;;0.90;99.90;;;0.47;67.04;95169.00;5092533;28;20503;-59
2023/01/26 04:37:28;;;;;;;12.60;7.50;;;0.90;99.90;;;0.45;67.26;95157.88;5087835;28;20824;-56
2023/01/26 04:39:55;;;;;;;32.10;17.63;;;0.90;99.90;;;0.45;67.55;95158.72;5089660;28;20454;-58
2023/01/26 04:42:23;;;;;;;4.83;3.90;;;0.90;99.90;;;0.45;66.05;95161.31;5088991;28;20461;-58
2023/01/26 04:44:51;;;;;;;8.13;5.07;;;1.00;99.90;;;0.43;66.98;95173.47;5094109;28;20490;-56
2023/01/26 04:47:18;;;;;;;6.93;4.47;;;0.90;99.90;;;0.44;66.58;95163.97;5087455;28;20565;-57
2023/01/26 04:49:46;;;;;;;4.70;4.20;;;0.90;99.90;;;0.47;67.23;95174.19;5089700;28;20479;-57
2023/01/26 04:52:14;;;;;;;4.07;3.73;;;0.90;99.90;;;0.55;67.19;95173.81;5095593;28;20457;-56
2023/01/26 04:54:42;;;;;;;3.70;3.27;;;0.90;99.90;;;0.65;68.32;95165.56;5088925;28;20504;-57
2023/01/26 04:57:10;;;;;;;42.93;20.63;;;1.00;99.90;;;0.73;67.34;95172.09;5092574;28;20510;-58
2023/01/26 04:59:37;;;;;;;12.03;8.10;;;1.10;99.90;;;0.79;67.40;95161.44;5092202;27;20478;-58
2023/01/26 05:02:05;;;;;;;4.40;4.00;;;1.20;99.90;;;0.81;66.69;95177.75;5088580;28;20520;-58
2023/01/26 05:04:32;;;;;;;3.37;3.10;;;1.20;99.90;;;0.76;65.79;95185.75;5092503;28;20460;-58
2023/01/26 05:06:59;;;;;;;5.20;3.70;;;1.20;99.90;;;0.67;66.25;95168.91;5089932;28;20487;-57
2023/01/26 05:09:28;;;;;;;3.10;2.90;;;1.20;99.90;;;0.65;65.73;95164.69;5084964;28;20470;-55
2023/01/26 05:12:32;;;;;;;3.53;3.23;;;1.10;99.90;;;0.60;66.27;95172.66;5086940;28;20523;-55
2023/01/26 05:14:43;;;;;;;4.47;3.60;;;1.10;99.90;;;0.54;66.40;95165.19;5087908;28;20588;-58
2023/01/26 05:17:10;;;;;;;4.40;4.00;;;1.00;99.90;;;0.51;67.07;95165.34;5089034;28;20453;-56
2023/01/26 05:19:37;;;;;;;3.97;3.53;;;1.00;99.90;;;0.53;66.55;95171.31;5091036;28;20485;-58
2023/01/26 05:22:05;;;;;;;5.20;4.10;;;1.00;99.90;;;0.54;66.31;95157.44;5089103;28;20458;-57
2023/01/26 05:24:34;;;;;;;4.87;3.70;;;1.00;99.90;;;0.56;66.75;95163.41;5090362;28;21112;-59
2023/01/26 05:29:46;;;;;;;11.17;3.97;;;1.00;99.90;;;0.59;66.84;95162.38;5090654;28;20538;-58
2023/01/26 05:32:13;;;;;;;6.20;3.93;;;1.00;99.90;;;0.63;66.84;95159.59;5089378;28;20452;-57
2023/01/26 05:34:40;;;;;;;8.57;3.37;;;1.00;99.90;;;0.65;67.10;95152.59;5089204;28;20658;-56
2023/01/26 05:37:08;;;;;;;7.07;4.47;;;1.10;99.90;;;0.68;66.34;95154.19;5086849;28;20460;-57
2023/01/26 05:39:36;;;;;;;5.37;3.93;;;1.10;99.90;;;0.71;66.02;95152.31;5087033;28;21313;-57
2023/01/26 05:42:04;;;;;;;4.57;3.10;;;1.10;99.90;;;0.74;66.53;95151.31;5085898;28;20458;-54
2023/01/26 05:44:31;;;;;;;4.10;3.20;;;1.20;99.90;;;0.76;65.44;95148.66;5092118;28;20553;-56
2023/01/26 05:46:58;;;;;;;3.70;3.37;;;1.20;99.90;;;0.71;65.57;95157.50;5085987;28;20490;-57
2023/01/26 05:49:26;;;;;;;14.53;3.93;;;1.20;99.90;;;0.69;65.70;95142.94;5090086;28;20854;-58
2023/01/26 05:51:53;;;;;;;3.60;3.30;;;1.10;99.90;;;0.66;66.71;95146.50;5090141;28;20480;-57
2023/01/26 05:54:20;;;;;;;8.90;3.80;;;1.10;99.90;;;0.64;66.83;95165.63;5088121;28;20937;-58
2023/01/26 05:56:49;;;;;;;6.00;3.80;;;1.10;99.90;;;0.64;66.81;95158.69;5091357;28;20450;-57
2023/01/26 05:59:16;;;;;;;5.07;3.73;;;1.10;99.90;;;0.66;66.83;95149.09;5085887;28;20477;-58
2023/01/26 06:01:43;;;;;;;5.27;3.93;;;1.10;99.90;;;0.68;66.94;95157.63;5093344;28;20831;-59
2023/01/26 06:04:10;;;;;;;6.73;3.97;;;1.10;99.90;;;0.70;65.73;95158.41;5085096;28;20481;-56
2023/01/26 06:06:38;;;;;;;4.67;4.27;;;1.10;99.90;;;0.74;66.07;95153.06;5088010;28;20450;-55
2023/01/26 06:09:05;;;;;;;4.53;4.13;;;1.10;99.90;;;0.79;65.48;95140.72;5085641;28;20470;-56
2023/01/26 06:11:32;;;;;;;5.47;4.57;;;1.20;99.90;;;0.78;66.28;95149.44;5093341;28;20940;-58
2023/01/26 06:14:01;;;;;;;12.63;5.03;;;1.20;99.90;;;0.80;65.54;95145.00;5086581;28;21024;-56
2023/01/26 06:16:28;;;;;;;7.20;5.80;;;1.20;99.90;;;0.82;66.77;95149.22;5088318;28;20981;-56
2023/01/26 06:18:55;;;;;;;5.70;5.03;;;1.20;99.90;;;0.85;66.45;95137.84;5090225;28;20474;-55
2023/01/26 06:21:23;;;;;;;7.23;5.70;;;1.30;99.90;;;0.86;66.21;95135.19;5091678;28;20454;-59
2023/01/26 06:23:50;;;;;;;11.10;5.53;;;1.30;99.90;;;0.87;65.54;95126.50;5092067;28;20465;-57
2023/01/26 06:26:17;;;;;;;9.90;6.23;;;1.30;99.90;;;0.90;66.12;95130.72;5085879;28;20539;-58
2023/01/26 06:28:45;;;;;;;12.23;5.90;;;1.30;99.90;;;0.95;65.38;95131.31;5089390;28;20912;-58
2023/01/26 06:31:13;;;;;;;8.80;5.70;;;1.40;99.90;;;0.97;65.05;95124.31;5095535;28;20462;-57
2023/01/26 06:33:41;;;;;;;6.93;5.80;;;1.40;99.90;;;0.98;66.33;95128.56;5089067;28;20493;-58
2023/01/26 06:36:11;;;;;;;6.53;5.83;;;1.40;99.90;;;0.98;66.00;95126.00;5090137;28;21223;-57
2023/01/26 06:38:40;;;;;;;12.20;7.17;;;1.40;99.90;;;0.99;66.50;95129.41;5095898;28;20478;-58
2023/01/26 06:41:08;;;;;;;18.00;7.67;;;1.40;99.90;;;0.99;66.01;95121.63;5094439;28;20493;-58
2023/01/26 06:43:35;;;;;;;7.70;6.60;;;1.40;99.90;;;1.03;65.14;95128.34;5087734;28;20473;-56
2023/01/26 06:46:03;;;;;;;10.13;6.73;;;1.40;99.90;;;1.01;65.80;95122.41;5097482;28;20465;-58
2023/01/26 06:48:33;;;;;;;12.33;6.27;;;1.50;99.90;;;1.05;65.49;95117.00;5086871;28;20485;-56
2023/01/26 06:51:05;;;;;;;18.27;7.17;;;1.50;99.90;;;1.06;65.36;95129.03;5095725;28;20465;-58
2023/01/26 06:53:34;;;;;;;13.93;6.10;;;1.50;99.90;;;1.08;65.37;95121.19;5096157;28;20457;-58
2023/01/26 06:56:02;;;;;;;10.20;5.77;;;1.50;99.90;;;1.12;65.02;95121.88;5094175;28;20484;-56
2023/01/26 06:58:29;;;;;;;6.03;5.43;;;1.50;99.90;;;1.13;64.67;95115.78;5091075;28;20665;-57
2023/01/26 07:00:57;;;;;;;9.20;6.40;;;1.50;99.90;;;1.15;65.84;95113.97;5091009;28;20977;-57
2023/01/26 07:03:24;;;;;;;12.70;7.63;;;1.50;99.90;;;1.19;65.99;95108.56;5087289;28;20474;-58
2023/01/26 07:05:53;;;;;;;10.87;7.43;;;1.60;99.90;;;1.24;65.42;95110.91;5094107;28;20784;-58
2023/01/26 07:08:20;;;;;;;9.77;6.90;;;1.60;99.90;;;1.29;65.70;95110.69;5090955;28;20497;-58
2023/01/26 07:10:47;;;;;;;12.73;7.33;;;1.70;99.90;;;1.30;65.61;95108.00;5091590;28;20457;-62
2023/01/26 07:13:15;;;;;;;10.27;7.37;;;1.70;99.90;;;1.33;65.04;95101.81;5094561;28;20484;-57
2023/01/26 07:15:42;;;;;;;15.73;7.63;;;1.70;99.90;;;1.33;65.11;95105.22;5096062;28;20469;-58
2023/01/26 07:18:09;;;;;;;7.87;6.80;;;1.70;99.90;;;1.36;64.70;95106.84;5087937;28;20474;-58
2023/01/26 07:20:37;;;;;;;9.40;6.70;;;1.80;99.90;;;1.35;65.08;95116.38;5092599;28;20446;-57
2023/01/26 07:23:06;;;;;;;8.33;5.70;;;1.80;99.90;;;1.33;65.02;95102.66;5088879;28;20610;-58
2023/01/26 07:25:33;;;;;;;9.60;7.03;;;1.80;99.90;;;1.29;65.51;95119.28;5094066;28;20446;-59
2023/01/26 07:28:00;;;;;;;7.43;5.53;;;1.70;99.90;;;1.27;65.01;95096.94;5097408;28;20484;-58
2023/01/26 07:30:28;;;;;;;9.73;6.53;;;1.70;99.90;;;1.24;65.11;95098.78;5089669;28;20464;-58
2023/01/26 07:32:55;;;;;;;14.30;5.13;;;1.70;99.90;;;1.23;65.03;95096.28;5091569;28;20484;-57
2023/01/26 07:35:22;;;;;;;10.70;7.00;;;1.70;99.90;;;1.23;65.85;95101.44;5087417;28;20571;-56
2023/01/26 07:37:49;;;;;;;7.70;5.40;;;1.70;99.90;;;1.30;65.77;95096.78;5092143;28;20470;-58
2023/01/26 07:40:19;;;;;;;8.57;5.63;;;1.70;99.90;;;1.32;65.24;95098.41;5086416;28;20967;-59
2023/01/26 07:42:46;;;;;;;11.43;6.37;;;1.70;99.90;;;1.31;65.73;95099.31;5092887;28;20493;-57
2023/01/26 07:45:16;;;;;;;11.20;6.53;;;1.70;99.90;;;1.34;65.28;95085.38;5091384;28;20549;-58
2023/01/26 07:47:43;;;;;;;12.07;7.17;;;1.80;99.90;;;1.38;66.25;95090.31;5092709;28;20493;-57
2023/01/26 07:50:12;;;;;;;9.47;6.53;;;1.80;99.90;;;1.42;65.36;95085.78;5092559;28;20450;-58
2023/01/26 07:52:39;;;;;;;11.47;6.67;;;1.80;99.90;;;1.48;66.10;95100.19;5092235;28;20481;-57
2023/01/26 07:55:07;;;;;;;11.70;6.60;;;1.90;99.90;;;1.54;65.60;95084.34;5099088;28;20465;-57
2023/01/26 07:57:36;;;;;;;13.30;9.13;;;1.90;99.90;;;1.58;66.20;95096.19;5092560;28;20458;-58
2023/01/26 08:00:04;;;;;;;12.73;8.77;;;1.90;99.90;;;1.65;65.47;95101.91;5090650;28;20563;-57
2023/01/26 08:02:31;;;;;;;13.20;8.20;;;2.00;99.90;;;1.69;65.25;95093.03;5093374;28;20458;-57
2023/01/26 08:04:58;;;;;;;14.00;8.30;;;2.10;99.90;;;1.75;65.47;95088.41;5094395;28;20454;-56
2023/01/26 08:07:26;;;;;;;13.73;8.10;;;2.10;99.90;;;1.81;65.65;95076.84;5089739;28;20713;-59
2023/01/26 08:09:53;;;;;;;14.60;8.77;;;2.20;99.90;;;1.87;65.12;95078.28;5090429;28;20498;-57
2023/01/26 08:12:20;;;;;;;13.60;9.20;;;2.20;99.90;;;1.93;65.47;95072.75;5089861;28;20450;-55
2023/01/26 08:14:49;;;;;;;16.30;9.63;;;2.20;99.90;;;1.97;65.72;95071.69;5088590;28;20546;-56
2023/01/26 08:17:16;;;;;;;13.37;7.60;;;2.30;99.90;;;2.03;65.32;95066.16;5091575;28;20453;-55
2023/01/26 08:19:44;;;;;;;14.03;8.27;;;2.40;99.90;;;2.07;65.71;95067.66;5089385;28;20504;-57
2023/01/26 08:22:11;;;;;;;12.93;9.17;;;2.40;99.90;;;2.09;64.70;95052.88;5091871;28;22074;-56
2023/01/26 08:24:38;;;;;;;13.37;9.10;;;2.50;99.90;;;2.17;64.78;95060.22;5090119;28;20473;-58
2023/01/26 08:27:05;;;;;;;14.40;7.63;;;2.50;99.90;;;2.22;64.34;95049.59;5093954;28;21323;-57
2023/01/26 08:29:33;;;;;;;15.10;8.80;;;2.50;99.90;;;2.25;63.81;95050.25;5090172;28;20504;-56
2023/01/26 08:32:02;;;;;;;15.53;8.83;;;2.60;99.90;;;2.31;64.89;95056.88;5088042;28;20450;-56
2023/01/26 08:34:30;;;;;;;20.13;8.17;;;2.60;99.90;;;2.34;64.06;95054.09;5088832;28;20489;-57
2023/01/26 08:36:57;;;;;;;10.67;8.00;;;2.70;99.90;;;2.39;64.79;95052.09;5087286;28;20508;-56
2023/01/26 08:39:24;;;;;;;14.20;8.77;;;2.70;99.90;;;2.44;64.27;95050.06;5091958;28;20477;-56
2023/01/26 08:41:52;;;;;;;11.70;8.90;;;2.80;99.90;;;2.49;64.05;95048.06;5097575;28;20453;-58
2023/01/26 08:44:19;;;;;;;6.93;5.30;;;2.80;99.90;;;2.54;63.33;95036.56;5090339;28;20478;-56
2023/01/26 08:46:46;;;;;;;8.63;6.10;;;2.90;99.70;;;2.53;63.50;95040.91;5087125;28;20450;-57
2023/01/26 08:49:15;;;;;;;9.10;5.07;;;2.90;99.50;;;2.54;62.70;95042.59;5087958;28;20493;-58
2023/01/26 08:51:42;;;;;;;10.13;5.23;;;2.90;99.20;;;2.49;62.83;95058.44;5086880;28;20446;-57
2023/01/26 08:54:10;;;;;;;3.10;2.83;;;2.90;99.00;;;2.43;62.10;95079.56;5093211;28;20497;-56
2023/01/26 08:56:37;;;;;;;4.17;3.87;;;2.80;98.30;;;2.33;62.39;95057.63;5089938;28;20446;-60
2023/01/26 08:59:04;;;;;;;4.23;3.37;;;2.80;98.20;;;2.26;61.61;95072.69;5091935;28;20474;-59
2023/01/26 09:01:32;;;;;;;4.13;3.73;;;2.70;98.60;;;2.22;62.79;95062.56;5092591;28;20899;-59
2023/01/26 09:04:00;;;;;;;4.10;3.80;;;2.70;98.30;;;2.20;61.81;95041.03;5089121;28;20481;-60
2023/01/26 09:06:29;;;;;;;6.13;4.27;;;2.60;98.20;;;2.24;62.64;95047.75;5092103;28;20449;-60
2023/01/26 09:08:56;;;;;;;7.60;4.37;;;2.60;98.50;;;2.30;62.85;95057.78;5091645;28;20490;-59
2023/01/26 09:11:24;;;;;;;7.20;3.60;;;2.60;98.40;;;2.33;62.22;95055.03;5087935;28;20458;-56
2023/01/26 09:13:55;;;;;;;3.23;2.93;;;2.70;98.50;;;2.36;62.66;95051.44;5090433;28;20584;-59
2023/01/26 09:16:22;;;;;;;9.10;4.90;;;2.70;98.30;;;2.41;62.14;95049.41;5091895;28;20784;-56
2023/01/26 09:18:50;;;;;;;5.47;4.07;;;2.80;97.90;;;2.44;62.17;95044.88;5090916;28;20466;-58
2023/01/26 09:21:17;;;;;;;4.90;4.00;;;2.80;98.00;;;2.47;61.78;95034.31;5092773;28;20651;-58
2023/01/26 09:23:46;;;;;;;3.70;3.40;;;2.80;98.00;;;2.45;60.95;95038.75;5086003;28;20473;-59
2023/01/26 09:26:13;;;;;;;6.67;3.40;;;2.80;97.60;;;2.43;60.62;95034.56;5088808;28;20980;-56
2023/01/26 09:28:41;;;;;;;4.27;3.90;;;2.80;97.40;;;2.41;60.48;95028.63;5088287;28;20489;-59
2023/01/26 09:31:10;;;;;;;6.17;3.27;;;2.80;97.50;;;2.44;61.49;95029.28;5088832;28;20456;-59
2023/01/26 09:33:38;;;;;;;3.57;3.23;;;2.80;97.40;;;2.43;61.16;95019.84;5088935;28;20478;-58
2023/01/26 09:36:06;;;;;;;3.53;3.23;;;2.80;97.00;;;2.44;62.02;95008.53;5090182;28;20460;-55
2023/01/26 09:38:33;;;;;;;3.77;3.47;;;2.80;97.60;;;2.47;61.49;95010.94;5091592;28;20937;-58
2023/01/26 09:41:05;;;;;;;9.40;2.23;;;2.80;97.60;;;2.50;60.47;95002.16;5087546;28;20457;-61
2023/01/26 09:43:37;;;;;;;2.70;2.50;;;2.80;97.10;;;2.48;60.15;95004.00;5087943;28;20556;-57
2023/01/26 09:46:17;;;;;;;2.67;2.47;;;2.80;97.40;;;2.46;61.09;95016.22;5089293;28;20545;-58
2023/01/26 09:48:53;;;;;;;3.00;2.70;;;2.80;97.00;;;2.46;60.48;95024.00;5084604;28;20489;-57
2023/01/26 09:51:23;;;;;;;3.03;2.70;;;2.80;97.10;;;2.44;60.67;95010.28;5084370;28;20438;-57
2023/01/26 09:53:54;;;;;;;3.37;3.17;;;2.80;97.00;;;2.45;60.45;95009.38;5090092;28;20566;-56
2023/01/26 09:56:27;;;;;;;4.03;2.77;;;2.80;97.10;;;2.44;61.33;95003.34;5089195;28;20500;-58
2023/01/26 09:58:56;;;;;;;2.20;2.00;;;2.80;97.00;;;2.41;60.56;94993.13;5087462;28;20810;-58
2023/01/26 10:01:29;;;;;;;4.10;2.37;;;2.80;97.00;;;2.37;61.01;94991.66;5094836;28;20454;-56
2023/01/26 10:04:02;;;;;;;2.20;2.10;;;2.80;97.00;;;2.34;60.17;94997.00;5089735;28;20884;-57
2023/01/26 10:06:31;;;;;;;2.07;1.97;;;2.70;97.00;;;2.32;60.01;94994.50;5093816;28;20976;-56
2023/01/26 10:09:00;;;;;;;2.33;2.20;;;2.70;97.00;;;2.30;60.94;94992.91;5095823;28;20993;-56
2023/01/26 10:11:32;;;;;;;3.20;2.90;;;2.70;97.20;;;2.30;60.78;94993.72;5092775;28;20446;-54
2023/01/26 10:14:02;;;;;;;2.07;1.97;;;2.70;97.10;;;2.30;60.74;94990.31;5093839;28;20577;-56
2023/01/26 10:16:29;;;;;;;2.00;1.80;;;2.70;97.10;;;2.30;60.50;94979.94;5091338;28;20966;-53
2023/01/26 10:18:59;;;;;;;2.77;2.17;;;2.70;97.20;;;2.27;60.96;94980.09;5091325;28;20478;-56
2023/01/26 10:21:30;;;;;;;5.03;2.57;;;2.70;97.10;;;2.27;60.53;95001.69;5095806;28;20450;-56
2023/01/26 10:23:58;;;;;;;2.80;2.43;;;2.70;97.30;;;2.26;60.60;94981.88;5088287;28;20473;-57
2023/01/26 10:26:31;;;;;;;2.10;1.90;;;2.60;97.00;;;2.25;61.53;94956.00;5088041;28;20548;-58
2023/01/26 10:28:58;;;;;;;2.80;2.07;;;2.70;97.30;;;2.26;61.37;94936.91;5088359;28;21078;-56
2023/01/26 10:31:28;;;;;;;2.30;2.10;;;2.70;97.30;;;2.32;61.09;94918.38;5089862;28;20454;-56
2023/01/26 10:33:57;;;;;;;2.70;2.60;;;2.70;97.20;;;2.33;60.50;94920.88;5094342;28;20470;-56
2023/01/26 10:36:24;;;;;;;2.07;1.97;;;2.70;97.10;;;2.36;60.55;94929.44;5090212;28;20458;-56
2023/01/26 10:38:51;;;;;;;3.13;2.43;;;2.70;97.10;;;2.37;60.73;94913.78;5091839;28;20469;-56
2023/01/26 10:41:25;;;;;;;3.40;3.10;;;2.80;97.00;;;2.37;60.43;94903.41;5089992;28;20569;-57
2023/01/26 10:43:55;;;;;;;2.47;2.27;;;2.70;97.10;;;2.36;61.37;94899.13;5091971;28;20466;-58
2023/01/26 10:46:28;;;;;;;3.10;2.90;;;2.80;97.00;;;2.37;60.42;94882.63;5087405;28;21291;-59
2023/01/26 10:48:57;;;;;;;4.20;2.93;;;2.70;97.10;;;2.37;61.20;94876.59;5087564;28;20493;-57
2023/01/26 10:51:28;;;;;;;2.77;2.50;;;2.80;97.20;;;2.41;60.75;94873.72;5087258;28;21084;-56
2023/01/26 10:54:19;;;;;;;2.80;2.43;;;2.80;97.10;;;2.43;60.99;94884.88;5088346;28;20558;-59
2023/01/26 10:56:48;;;;;;;1.77;1.67;;;2.80;97.00;;;2.46;61.05;94883.84;5088100;28;20457;-58
2023/01/26 10:59:31;;;;;;;2.77;2.57;;;2.80;97.00;;;2.45;60.97;94867.44;5086980;28;20989;-57
2023/01/26 11:02:01;;;;;;;2.53;2.33;;;2.80;97.00;;;2.46;60.29;94871.72;5086441;28;20450;-56
2023/01/26 11:04:28;;;;;;;4.80;3.00;;;2.80;97.00;;;2.49;60.59;94847.31;5093643;28;20465;-56
2023/01/26 11:06:56;;;;;;;3.53;2.90;;;2.80;97.10;;;2.55;61.21;94846.13;5089199;28;20981;-55
2023/01/26 11:09:27;;;;;;;3.37;3.07;;;2.90;97.10;;;2.58;60.52;94843.34;5088973;28;20909;-57
2023/01/26 11:12:00;;;;;;;3.33;3.00;;;2.90;97.10;;;2.60;60.56;94825.91;5090530;28;20986;-57
2023/01/26 11:14:29;;;;;;;4.30;2.70;;;2.90;97.10;;;2.64;60.34;94837.78;5087419;28;20554;-59
2023/01/26 11:17:08;;;;;;;3.50;2.20;;;3.00;97.00;;;2.62;60.19;94834.44;5091837;28;20489;-59
2023/01/26 11:20:02;;;;;;;3.93;2.93;;;3.00;96.90;;;2.62;60.73;94824.06;5088091;28;20470;-57
2023/01/26 11:22:33;;;;;;;4.00;3.63;;;3.00;97.10;;;2.67;61.03;94815.06;5086654;28;20446;-56